sensor_id;sensor_type;location;lat;lon;timestamp;P1;durP1;ratioP1;P2;durP2;ratioP2
77042;SDS011;65975;53.936;27.540;2023-02-03T00:00:16;11.88;;;7.15;;
77042;SDS011;65975;53.936;27.540;2023-02-03T00:02:42;10.80;;;6.32;;
77042;SDS011;65975;53.936;27.540;2023-02-03T00:05:07;11.02;;;6.88;;
77042;SDS011;65975;53.936;27.540;2023-02-03T00:07:33;11.43;;;7.03;;
77042;SDS011;65975;53.936;27.540;2023-02-03T00:10:00;11.57;;;6.32;;
77042;SDS011;65975;53.936;27.540;2023-02-03T00:12:27;12.30;;;6.20;;
77042;SDS011;65975;53.936;27.540;2023-02-03T00:14:52;10.55;;;5.10;;
77042;SDS011;65975;53.936;27.540;2023-02-03T00:17:18;10.23;;;5.93;;
77042;SDS011;65975;53.936;27.540;2023-02-03T00:19:43;8.55;;;4.97;;
77042;SDS011;65975;53.936;27.540;2023-02-03T00:22:08;11.18;;;6.78;;
77042;SDS011;65975;53.936;27.540;2023-02-03T00:24:34;10.25;;;6.03;;
77042;SDS011;65975;53.936;27.540;2023-02-03T00:26:59;11.55;;;6.70;;
77042;SDS011;65975;53.936;27.540;2023-02-03T00:29:25;9.32;;;6.03;;
77042;SDS011;65975;53.936;27.540;2023-02-03T00:31:51;9.27;;;6.28;;
77042;SDS011;65975;53.936;27.540;2023-02-03T00:34:17;11.65;;;6.93;;
77042;SDS011;65975;53.936;27.540;2023-02-03T00:36:43;7.88;;;5.35;;
77042;SDS011;65975;53.936;27.540;2023-02-03T00:39:12;7.40;;;5.10;;
77042;SDS011;65975;53.936;27.540;2023-02-03T00:41:38;9.02;;;5.72;;
77042;SDS011;65975;53.936;27.540;2023-02-03T00:44:03;7.90;;;5.18;;
77042;SDS011;65975;53.936;27.540;2023-02-03T00:46:29;8.85;;;5.90;;
77042;SDS011;65975;53.936;27.540;2023-02-03T00:48:54;8.80;;;6.03;;
77042;SDS011;65975;53.936;27.540;2023-02-03T00:51:20;8.35;;;5.30;;
77042;SDS011;65975;53.936;27.540;2023-02-03T00:53:46;10.00;;;5.57;;
77042;SDS011;65975;53.936;27.540;2023-02-03T00:56:12;7.10;;;5.88;;
77042;SDS011;65975;53.936;27.540;2023-02-03T00:58:40;8.95;;;5.90;;
77042;SDS011;65975;53.936;27.540;2023-02-03T01:01:06;5.28;;;4.45;;
77042;SDS011;65975;53.936;27.540;2023-02-03T01:03:32;7.18;;;4.68;;
77042;SDS011;65975;53.936;27.540;2023-02-03T01:06:07;7.28;;;4.70;;
77042;SDS011;65975;53.936;27.540;2023-02-03T01:08:44;6.10;;;4.90;;
77042;SDS011;65975;53.936;27.540;2023-02-03T01:11:17;7.47;;;4.38;;
77042;SDS011;65975;53.936;27.540;2023-02-03T01:13:44;6.35;;;5.10;;
77042;SDS011;65975;53.936;27.540;2023-02-03T01:16:11;7.05;;;4.93;;
77042;SDS011;65975;53.936;27.540;2023-02-03T01:18:38;5.75;;;3.85;;
77042;SDS011;65975;53.936;27.540;2023-02-03T01:21:12;8.90;;;5.40;;
77042;SDS011;65975;53.936;27.540;2023-02-03T01:23:40;7.07;;;5.28;;
77042;SDS011;65975;53.936;27.540;2023-02-03T01:26:07;8.50;;;5.38;;
77042;SDS011;65975;53.936;27.540;2023-02-03T01:28:34;5.40;;;4.18;;
77042;SDS011;65975;53.936;27.540;2023-02-03T01:33:39;6.63;;;3.95;;
77042;SDS011;65975;53.936;27.540;2023-02-03T01:36:08;6.38;;;4.35;;
77042;SDS011;65975;53.936;27.540;2023-02-03T01:38:35;5.65;;;3.75;;
77042;SDS011;65975;53.936;27.540;2023-02-03T01:41:02;8.60;;;5.22;;
77042;SDS011;65975;53.936;27.540;2023-02-03T01:43:29;5.90;;;5.13;;
77042;SDS011;65975;53.936;27.540;2023-02-03T01:45:55;8.30;;;4.70;;
77042;SDS011;65975;53.936;27.540;2023-02-03T01:48:21;6.97;;;4.45;;
77042;SDS011;65975;53.936;27.540;2023-02-03T01:50:47;7.95;;;4.72;;
77042;SDS011;65975;53.936;27.540;2023-02-03T01:53:12;5.72;;;4.63;;
77042;SDS011;65975;53.936;27.540;2023-02-03T01:55:43;7.25;;;5.10;;
77042;SDS011;65975;53.936;27.540;2023-02-03T02:00:49;5.93;;;4.47;;
77042;SDS011;65975;53.936;27.540;2023-02-03T02:03:17;6.38;;;4.20;;
77042;SDS011;65975;53.936;27.540;2023-02-03T02:05:48;6.45;;;5.07;;
77042;SDS011;65975;53.936;27.540;2023-02-03T02:08:17;5.35;;;4.63;;
77042;SDS011;65975;53.936;27.540;2023-02-03T02:10:46;5.75;;;4.93;;
77042;SDS011;65975;53.936;27.540;2023-02-03T02:13:12;5.07;;;3.97;;
77042;SDS011;65975;53.936;27.540;2023-02-03T02:23:58;4.38;;;3.95;;
77042;SDS011;65975;53.936;27.540;2023-02-03T02:40:23;4.75;;;3.75;;
77042;SDS011;65975;53.936;27.540;2023-02-03T02:46:10;3.60;;;2.53;;
77042;SDS011;65975;53.936;27.540;2023-02-03T02:48:27;4.60;;;3.78;;
77042;SDS011;65975;53.936;27.540;2023-02-03T02:50:58;3.20;;;2.90;;
77042;SDS011;65975;53.936;27.540;2023-02-03T02:53:28;3.17;;;2.83;;
77042;SDS011;65975;53.936;27.540;2023-02-03T02:58:29;3.60;;;2.92;;
77042;SDS011;65975;53.936;27.540;2023-02-03T03:00:58;4.25;;;3.20;;
77042;SDS011;65975;53.936;27.540;2023-02-03T03:03:23;4.18;;;2.78;;
77042;SDS011;65975;53.936;27.540;2023-02-03T03:08:26;3.75;;;2.90;;
77042;SDS011;65975;53.936;27.540;2023-02-03T03:11:04;3.65;;;3.10;;
77042;SDS011;65975;53.936;27.540;2023-02-03T03:13:33;4.20;;;3.03;;
77042;SDS011;65975;53.936;27.540;2023-02-03T03:16:06;4.38;;;3.05;;
77042;SDS011;65975;53.936;27.540;2023-02-03T03:18:45;3.53;;;2.47;;
77042;SDS011;65975;53.936;27.540;2023-02-03T03:21:15;4.15;;;3.58;;
77042;SDS011;65975;53.936;27.540;2023-02-03T03:23:46;3.13;;;2.13;;
77042;SDS011;65975;53.936;27.540;2023-02-03T03:28:56;2.50;;;2.15;;
77042;SDS011;65975;53.936;27.540;2023-02-03T03:31:42;3.65;;;2.90;;
77042;SDS011;65975;53.936;27.540;2023-02-03T03:34:09;3.60;;;2.58;;
77042;SDS011;65975;53.936;27.540;2023-02-03T03:36:39;2.85;;;2.55;;
77042;SDS011;65975;53.936;27.540;2023-02-03T03:39:54;5.32;;;2.95;;
77042;SDS011;65975;53.936;27.540;2023-02-03T03:42:12;3.15;;;2.17;;
77042;SDS011;65975;53.936;27.540;2023-02-03T03:44:58;3.80;;;2.85;;
77042;SDS011;65975;53.936;27.540;2023-02-03T03:47:29;4.45;;;3.00;;
77042;SDS011;65975;53.936;27.540;2023-02-03T03:50:00;3.05;;;2.60;;
77042;SDS011;65975;53.936;27.540;2023-02-03T03:52:31;4.75;;;3.00;;
77042;SDS011;65975;53.936;27.540;2023-02-03T03:54:59;3.10;;;2.40;;
77042;SDS011;65975;53.936;27.540;2023-02-03T03:57:29;4.30;;;2.78;;
77042;SDS011;65975;53.936;27.540;2023-02-03T04:00:01;3.10;;;2.85;;
77042;SDS011;65975;53.936;27.540;2023-02-03T04:02:30;3.88;;;3.03;;
77042;SDS011;65975;53.936;27.540;2023-02-03T04:04:59;2.90;;;2.42;;
77042;SDS011;65975;53.936;27.540;2023-02-03T04:07:36;3.47;;;3.13;;
77042;SDS011;65975;53.936;27.540;2023-02-03T04:10:04;4.43;;;3.08;;
77042;SDS011;65975;53.936;27.540;2023-02-03T04:12:35;4.10;;;3.47;;
77042;SDS011;65975;53.936;27.540;2023-02-03T04:15:03;3.65;;;3.13;;
77042;SDS011;65975;53.936;27.540;2023-02-03T04:17:28;3.00;;;2.70;;
77042;SDS011;65975;53.936;27.540;2023-02-03T04:19:54;4.88;;;2.92;;
77042;SDS011;65975;53.936;27.540;2023-02-03T04:22:19;2.80;;;2.50;;
77042;SDS011;65975;53.936;27.540;2023-02-03T04:24:45;3.92;;;2.97;;
77042;SDS011;65975;53.936;27.540;2023-02-03T04:27:10;4.03;;;2.78;;
77042;SDS011;65975;53.936;27.540;2023-02-03T04:29:36;2.83;;;2.53;;
77042;SDS011;65975;53.936;27.540;2023-02-03T04:32:01;3.03;;;2.60;;
77042;SDS011;65975;53.936;27.540;2023-02-03T04:34:27;4.35;;;2.80;;
77042;SDS011;65975;53.936;27.540;2023-02-03T04:36:52;2.92;;;2.55;;
77042;SDS011;65975;53.936;27.540;2023-02-03T04:39:18;4.32;;;3.10;;
77042;SDS011;65975;53.936;27.540;2023-02-03T04:41:43;4.00;;;3.05;;
77042;SDS011;65975;53.936;27.540;2023-02-03T04:44:09;4.15;;;2.83;;
77042;SDS011;65975;53.936;27.540;2023-02-03T04:46:34;2.83;;;2.53;;
77042;SDS011;65975;53.936;27.540;2023-02-03T04:48:59;3.75;;;2.60;;
77042;SDS011;65975;53.936;27.540;2023-02-03T04:51:25;4.50;;;3.00;;
77042;SDS011;65975;53.936;27.540;2023-02-03T04:53:50;3.72;;;3.00;;
77042;SDS011;65975;53.936;27.540;2023-02-03T04:56:17;3.28;;;2.70;;
77042;SDS011;65975;53.936;27.540;2023-02-03T04:58:43;4.25;;;3.08;;
77042;SDS011;65975;53.936;27.540;2023-02-03T05:01:08;3.47;;;2.47;;
77042;SDS011;65975;53.936;27.540;2023-02-03T05:03:34;4.70;;;3.15;;
77042;SDS011;65975;53.936;27.540;2023-02-03T05:06:00;7.18;;;4.93;;
77042;SDS011;65975;53.936;27.540;2023-02-03T05:08:27;8.35;;;5.65;;
77042;SDS011;65975;53.936;27.540;2023-02-03T05:10:53;4.22;;;3.55;;
77042;SDS011;65975;53.936;27.540;2023-02-03T05:13:19;8.02;;;4.45;;
77042;SDS011;65975;53.936;27.540;2023-02-03T05:15:44;5.72;;;4.55;;
77042;SDS011;65975;53.936;27.540;2023-02-03T05:18:10;7.82;;;5.68;;
77042;SDS011;65975;53.936;27.540;2023-02-03T05:20:35;8.43;;;5.45;;
77042;SDS011;65975;53.936;27.540;2023-02-03T05:23:00;10.32;;;6.68;;
77042;SDS011;65975;53.936;27.540;2023-02-03T05:25:26;13.45;;;7.65;;
77042;SDS011;65975;53.936;27.540;2023-02-03T05:27:51;9.18;;;5.90;;
77042;SDS011;65975;53.936;27.540;2023-02-03T05:30:17;8.02;;;5.10;;
77042;SDS011;65975;53.936;27.540;2023-02-03T05:32:44;6.88;;;4.88;;
77042;SDS011;65975;53.936;27.540;2023-02-03T05:35:09;7.13;;;5.18;;
77042;SDS011;65975;53.936;27.540;2023-02-03T05:37:35;6.68;;;4.65;;
77042;SDS011;65975;53.936;27.540;2023-02-03T05:40:00;12.73;;;8.55;;
77042;SDS011;65975;53.936;27.540;2023-02-03T05:42:48;12.57;;;7.72;;
77042;SDS011;65975;53.936;27.540;2023-02-03T05:45:14;5.72;;;4.47;;
77042;SDS011;65975;53.936;27.540;2023-02-03T05:47:40;7.05;;;3.70;;
77042;SDS011;65975;53.936;27.540;2023-02-03T05:50:06;10.68;;;5.63;;
77042;SDS011;65975;53.936;27.540;2023-02-03T05:52:31;7.00;;;4.07;;
77042;SDS011;65975;53.936;27.540;2023-02-03T05:54:57;12.98;;;8.00;;
77042;SDS011;65975;53.936;27.540;2023-02-03T05:57:22;14.02;;;8.82;;
77042;SDS011;65975;53.936;27.540;2023-02-03T05:59:48;10.88;;;5.60;;
77042;SDS011;65975;53.936;27.540;2023-02-03T06:02:14;12.50;;;7.93;;
77042;SDS011;65975;53.936;27.540;2023-02-03T06:04:41;10.27;;;6.80;;
77042;SDS011;65975;53.936;27.540;2023-02-03T06:07:07;15.52;;;9.15;;
77042;SDS011;65975;53.936;27.540;2023-02-03T06:09:34;8.40;;;5.93;;
77042;SDS011;65975;53.936;27.540;2023-02-03T06:12:00;8.40;;;5.85;;
77042;SDS011;65975;53.936;27.540;2023-02-03T06:14:25;10.77;;;7.07;;
77042;SDS011;65975;53.936;27.540;2023-02-03T06:16:52;9.35;;;6.43;;
77042;SDS011;65975;53.936;27.540;2023-02-03T06:19:18;10.52;;;7.57;;
77042;SDS011;65975;53.936;27.540;2023-02-03T06:21:43;13.73;;;7.63;;
77042;SDS011;65975;53.936;27.540;2023-02-03T06:24:09;14.52;;;8.10;;
77042;SDS011;65975;53.936;27.540;2023-02-03T06:26:35;8.50;;;5.25;;
77042;SDS011;65975;53.936;27.540;2023-02-03T06:29:01;10.82;;;6.30;;
77042;SDS011;65975;53.936;27.540;2023-02-03T06:31:26;12.43;;;7.22;;
77042;SDS011;65975;53.936;27.540;2023-02-03T06:33:52;9.48;;;6.43;;
77042;SDS011;65975;53.936;27.540;2023-02-03T06:36:18;9.20;;;5.55;;
77042;SDS011;65975;53.936;27.540;2023-02-03T06:38:43;10.10;;;6.57;;
77042;SDS011;65975;53.936;27.540;2023-02-03T06:41:09;13.07;;;7.18;;
77042;SDS011;65975;53.936;27.540;2023-02-03T06:43:34;6.00;;;4.78;;
77042;SDS011;65975;53.936;27.540;2023-02-03T06:46:00;7.05;;;4.38;;
77042;SDS011;65975;53.936;27.540;2023-02-03T06:48:25;6.18;;;4.88;;
77042;SDS011;65975;53.936;27.540;2023-02-03T06:50:51;6.20;;;5.15;;
77042;SDS011;65975;53.936;27.540;2023-02-03T06:53:16;9.55;;;6.22;;
77042;SDS011;65975;53.936;27.540;2023-02-03T06:55:42;13.40;;;6.80;;
77042;SDS011;65975;53.936;27.540;2023-02-03T06:58:07;13.20;;;7.03;;
77042;SDS011;65975;53.936;27.540;2023-02-03T07:00:33;5.88;;;4.25;;
77042;SDS011;65975;53.936;27.540;2023-02-03T07:02:58;6.97;;;5.03;;
77042;SDS011;65975;53.936;27.540;2023-02-03T07:05:25;4.88;;;3.60;;
77042;SDS011;65975;53.936;27.540;2023-02-03T07:07:51;7.20;;;5.13;;
77042;SDS011;65975;53.936;27.540;2023-02-03T07:10:17;5.30;;;3.97;;
77042;SDS011;65975;53.936;27.540;2023-02-03T07:12:43;13.48;;;8.18;;
77042;SDS011;65975;53.936;27.540;2023-02-03T07:15:09;11.10;;;6.60;;
77042;SDS011;65975;53.936;27.540;2023-02-03T07:17:35;7.53;;;4.40;;
77042;SDS011;65975;53.936;27.540;2023-02-03T07:20:01;9.82;;;5.63;;
77042;SDS011;65975;53.936;27.540;2023-02-03T07:22:26;7.97;;;5.93;;
77042;SDS011;65975;53.936;27.540;2023-02-03T07:24:52;9.32;;;5.60;;
77042;SDS011;65975;53.936;27.540;2023-02-03T07:27:17;16.20;;;6.95;;
77042;SDS011;65975;53.936;27.540;2023-02-03T07:29:43;13.48;;;6.20;;
77042;SDS011;65975;53.936;27.540;2023-02-03T07:32:09;16.50;;;7.40;;
77042;SDS011;65975;53.936;27.540;2023-02-03T07:34:34;16.73;;;8.95;;
77042;SDS011;65975;53.936;27.540;2023-02-03T07:37:00;14.40;;;9.63;;
77042;SDS011;65975;53.936;27.540;2023-02-03T07:39:26;19.17;;;10.43;;
77042;SDS011;65975;53.936;27.540;2023-02-03T07:41:51;12.55;;;6.47;;
77042;SDS011;65975;53.936;27.540;2023-02-03T07:44:17;9.98;;;5.38;;
77042;SDS011;65975;53.936;27.540;2023-02-03T07:46:42;17.48;;;8.55;;
77042;SDS011;65975;53.936;27.540;2023-02-03T07:49:10;22.17;;;11.35;;
77042;SDS011;65975;53.936;27.540;2023-02-03T07:51:36;10.57;;;7.05;;
77042;SDS011;65975;53.936;27.540;2023-02-03T07:54:01;10.30;;;6.03;;
77042;SDS011;65975;53.936;27.540;2023-02-03T07:56:27;5.95;;;3.80;;
77042;SDS011;65975;53.936;27.540;2023-02-03T07:58:54;6.15;;;3.67;;
77042;SDS011;65975;53.936;27.540;2023-02-03T08:01:21;8.18;;;4.97;;
77042;SDS011;65975;53.936;27.540;2023-02-03T08:03:47;15.27;;;8.95;;
77042;SDS011;65975;53.936;27.540;2023-02-03T08:06:12;17.48;;;6.43;;
77042;SDS011;65975;53.936;27.540;2023-02-03T08:08:38;8.73;;;3.88;;
77042;SDS011;65975;53.936;27.540;2023-02-03T08:11:05;8.35;;;6.05;;
77042;SDS011;65975;53.936;27.540;2023-02-03T08:13:31;12.50;;;6.53;;
77042;SDS011;65975;53.936;27.540;2023-02-03T08:15:56;10.40;;;4.70;;
77042;SDS011;65975;53.936;27.540;2023-02-03T08:18:22;11.02;;;5.63;;
77042;SDS011;65975;53.936;27.540;2023-02-03T08:20:47;9.07;;;4.65;;
77042;SDS011;65975;53.936;27.540;2023-02-03T08:23:13;11.43;;;5.53;;
77042;SDS011;65975;53.936;27.540;2023-02-03T08:25:38;6.35;;;3.80;;
77042;SDS011;65975;53.936;27.540;2023-02-03T08:28:04;4.20;;;3.08;;
77042;SDS011;65975;53.936;27.540;2023-02-03T08:30:29;3.25;;;2.38;;
77042;SDS011;65975;53.936;27.540;2023-02-03T08:32:56;5.75;;;2.72;;
77042;SDS011;65975;53.936;27.540;2023-02-03T08:35:22;3.08;;;2.40;;
77042;SDS011;65975;53.936;27.540;2023-02-03T08:37:47;7.93;;;4.32;;
77042;SDS011;65975;53.936;27.540;2023-02-03T08:40:14;3.65;;;2.88;;
77042;SDS011;65975;53.936;27.540;2023-02-03T08:42:40;13.02;;;5.85;;
77042;SDS011;65975;53.936;27.540;2023-02-03T08:45:06;8.98;;;4.75;;
77042;SDS011;65975;53.936;27.540;2023-02-03T08:47:32;4.72;;;3.67;;
77042;SDS011;65975;53.936;27.540;2023-02-03T08:49:57;12.10;;;5.43;;
77042;SDS011;65975;53.936;27.540;2023-02-03T08:52:23;8.40;;;5.80;;
77042;SDS011;65975;53.936;27.540;2023-02-03T08:54:48;10.52;;;4.82;;
77042;SDS011;65975;53.936;27.540;2023-02-03T08:57:14;3.20;;;2.25;;
77042;SDS011;65975;53.936;27.540;2023-02-03T08:59:41;5.35;;;4.03;;
77042;SDS011;65975;53.936;27.540;2023-02-03T09:02:10;8.80;;;6.13;;
77042;SDS011;65975;53.936;27.540;2023-02-03T09:04:40;4.57;;;3.30;;
77042;SDS011;65975;53.936;27.540;2023-02-03T09:07:18;5.68;;;3.03;;
77042;SDS011;65975;53.936;27.540;2023-02-03T09:09:44;2.30;;;1.88;;
77042;SDS011;65975;53.936;27.540;2023-02-03T09:12:09;6.50;;;2.90;;
77042;SDS011;65975;53.936;27.540;2023-02-03T09:14:37;4.35;;;2.90;;
77042;SDS011;65975;53.936;27.540;2023-02-03T09:17:03;6.68;;;3.25;;
77042;SDS011;65975;53.936;27.540;2023-02-03T09:19:31;5.63;;;3.53;;
77042;SDS011;65975;53.936;27.540;2023-02-03T09:21:56;5.68;;;4.28;;
77042;SDS011;65975;53.936;27.540;2023-02-03T09:24:22;4.80;;;2.92;;
77042;SDS011;65975;53.936;27.540;2023-02-03T09:26:47;9.13;;;3.63;;
77042;SDS011;65975;53.936;27.540;2023-02-03T09:29:13;6.07;;;2.70;;
77042;SDS011;65975;53.936;27.540;2023-02-03T09:31:39;4.68;;;2.65;;
77042;SDS011;65975;53.936;27.540;2023-02-03T09:34:04;4.70;;;2.80;;
77042;SDS011;65975;53.936;27.540;2023-02-03T09:36:30;7.93;;;3.65;;
77042;SDS011;65975;53.936;27.540;2023-02-03T09:38:56;4.82;;;3.47;;
77042;SDS011;65975;53.936;27.540;2023-02-03T09:44:27;9.18;;;5.20;;
77042;SDS011;65975;53.936;27.540;2023-02-03T09:47:03;7.53;;;4.00;;
77042;SDS011;65975;53.936;27.540;2023-02-03T09:49:51;12.93;;;5.88;;
77042;SDS011;65975;53.936;27.540;2023-02-03T09:52:30;8.95;;;4.68;;
77042;SDS011;65975;53.936;27.540;2023-02-03T09:57:30;6.70;;;4.45;;
77042;SDS011;65975;53.936;27.540;2023-02-03T10:00:02;6.43;;;2.95;;
77042;SDS011;65975;53.936;27.540;2023-02-03T10:11:06;5.82;;;2.88;;
77042;SDS011;65975;53.936;27.540;2023-02-03T10:13:42;2.20;;;2.00;;
77042;SDS011;65975;53.936;27.540;2023-02-03T10:18:53;6.15;;;2.47;;
77042;SDS011;65975;53.936;27.540;2023-02-03T10:23:52;7.10;;;3.53;;
77042;SDS011;65975;53.936;27.540;2023-02-03T10:26:21;4.38;;;2.58;;
77042;SDS011;65975;53.936;27.540;2023-02-03T10:28:55;5.45;;;3.58;;
77042;SDS011;65975;53.936;27.540;2023-02-03T10:31:23;6.32;;;3.97;;
77042;SDS011;65975;53.936;27.540;2023-02-03T10:33:58;3.55;;;2.90;;
77042;SDS011;65975;53.936;27.540;2023-02-03T10:36:37;2.85;;;2.28;;
77042;SDS011;65975;53.936;27.540;2023-02-03T10:42:14;2.75;;;2.45;;
77042;SDS011;65975;53.936;27.540;2023-02-03T10:49:38;5.00;;;3.55;;
77042;SDS011;65975;53.936;27.540;2023-02-03T10:52:03;3.75;;;2.70;;
77042;SDS011;65975;53.936;27.540;2023-02-03T10:54:35;6.03;;;4.28;;
77042;SDS011;65975;53.936;27.540;2023-02-03T10:57:20;11.63;;;8.55;;
77042;SDS011;65975;53.936;27.540;2023-02-03T10:59:46;8.18;;;6.70;;
77042;SDS011;65975;53.936;27.540;2023-02-03T11:02:22;8.65;;;4.82;;
77042;SDS011;65975;53.936;27.540;2023-02-03T11:07:40;19.63;;;9.57;;
77042;SDS011;65975;53.936;27.540;2023-02-03T11:15:51;14.00;;;9.45;;
77042;SDS011;65975;53.936;27.540;2023-02-03T11:21:22;17.58;;;10.23;;
77042;SDS011;65975;53.936;27.540;2023-02-03T11:26:50;17.58;;;8.70;;
77042;SDS011;65975;53.936;27.540;2023-02-03T11:29:25;7.53;;;4.93;;
77042;SDS011;65975;53.936;27.540;2023-02-03T11:31:53;9.10;;;6.13;;
77042;SDS011;65975;53.936;27.540;2023-02-03T11:34:31;9.38;;;5.93;;
77042;SDS011;65975;53.936;27.540;2023-02-03T11:42:32;13.10;;;7.40;;
77042;SDS011;65975;53.936;27.540;2023-02-03T11:47:56;4.85;;;2.80;;
77042;SDS011;65975;53.936;27.540;2023-02-03T11:50:36;6.18;;;3.65;;
77042;SDS011;65975;53.936;27.540;2023-02-03T11:53:28;10.75;;;6.63;;
77042;SDS011;65975;53.936;27.540;2023-02-03T11:56:11;13.85;;;8.23;;
77042;SDS011;65975;53.936;27.540;2023-02-03T12:04:20;19.45;;;9.05;;
77042;SDS011;65975;53.936;27.540;2023-02-03T12:12:39;6.95;;;4.85;;
77042;SDS011;65975;53.936;27.540;2023-02-03T12:28:29;18.27;;;11.50;;
77042;SDS011;65975;53.936;27.540;2023-02-03T12:31:48;12.68;;;8.30;;
77042;SDS011;65975;53.936;27.540;2023-02-03T12:36:58;16.60;;;11.00;;
77042;SDS011;65975;53.936;27.540;2023-02-03T12:39:40;12.98;;;8.65;;
77042;SDS011;65975;53.936;27.540;2023-02-03T12:47:21;7.10;;;4.65;;
77042;SDS011;65975;53.936;27.540;2023-02-03T12:49:56;14.23;;;4.95;;
77042;SDS011;65975;53.936;27.540;2023-02-03T12:55:27;7.22;;;4.55;;
77042;SDS011;65975;53.936;27.540;2023-02-03T12:58:04;11.43;;;8.15;;
77042;SDS011;65975;53.936;27.540;2023-02-03T13:14:02;4.38;;;3.35;;
77042;SDS011;65975;53.936;27.540;2023-02-03T13:16:40;5.88;;;3.22;;
77042;SDS011;65975;53.936;27.540;2023-02-03T13:19:19;5.60;;;3.50;;
77042;SDS011;65975;53.936;27.540;2023-02-03T13:21:48;3.83;;;3.13;;
77042;SDS011;65975;53.936;27.540;2023-02-03T13:24:14;3.20;;;2.90;;
77042;SDS011;65975;53.936;27.540;2023-02-03T13:30:04;5.95;;;2.88;;
77042;SDS011;65975;53.936;27.540;2023-02-03T13:43:28;4.18;;;2.90;;
77042;SDS011;65975;53.936;27.540;2023-02-03T13:45:58;4.05;;;2.97;;
77042;SDS011;65975;53.936;27.540;2023-02-03T13:48:26;7.95;;;4.63;;
77042;SDS011;65975;53.936;27.540;2023-02-03T13:51:04;26.15;;;16.75;;
77042;SDS011;65975;53.936;27.540;2023-02-03T13:53:36;26.08;;;17.40;;
77042;SDS011;65975;53.936;27.540;2023-02-03T13:56:05;7.07;;;3.40;;
77042;SDS011;65975;53.936;27.540;2023-02-03T13:58:34;5.50;;;3.28;;
77042;SDS011;65975;53.936;27.540;2023-02-03T14:01:03;5.32;;;3.72;;
77042;SDS011;65975;53.936;27.540;2023-02-03T14:03:49;6.63;;;4.25;;
77042;SDS011;65975;53.936;27.540;2023-02-03T14:09:18;5.15;;;4.07;;
77042;SDS011;65975;53.936;27.540;2023-02-03T14:11:44;7.45;;;3.95;;
77042;SDS011;65975;53.936;27.540;2023-02-03T14:16:46;6.68;;;4.00;;
77042;SDS011;65975;53.936;27.540;2023-02-03T14:24:21;6.50;;;4.05;;
77042;SDS011;65975;53.936;27.540;2023-02-03T14:26:51;3.47;;;3.00;;
77042;SDS011;65975;53.936;27.540;2023-02-03T14:34:42;7.38;;;5.28;;
77042;SDS011;65975;53.936;27.540;2023-02-03T14:37:14;19.05;;;10.80;;
77042;SDS011;65975;53.936;27.540;2023-02-03T14:42:54;4.70;;;3.22;;
77042;SDS011;65975;53.936;27.540;2023-02-03T15:02:20;35.97;;;22.00;;
77042;SDS011;65975;53.936;27.540;2023-02-03T15:07:38;40.03;;;21.83;;
77042;SDS011;65975;53.936;27.540;2023-02-03T15:10:13;55.13;;;30.02;;
77042;SDS011;65975;53.936;27.540;2023-02-03T15:12:44;71.05;;;46.55;;
77042;SDS011;65975;53.936;27.540;2023-02-03T15:15:12;36.25;;;22.45;;
77042;SDS011;65975;53.936;27.540;2023-02-03T15:17:47;54.80;;;29.63;;
77042;SDS011;65975;53.936;27.540;2023-02-03T15:22:51;28.95;;;15.50;;
77042;SDS011;65975;53.936;27.540;2023-02-03T15:25:17;25.67;;;13.80;;
77042;SDS011;65975;53.936;27.540;2023-02-03T15:27:45;16.30;;;10.18;;
77042;SDS011;65975;53.936;27.540;2023-02-03T15:30:14;12.50;;;6.82;;
77042;SDS011;65975;53.936;27.540;2023-02-03T15:32:41;5.25;;;4.00;;
77042;SDS011;65975;53.936;27.540;2023-02-03T15:35:15;6.15;;;3.55;;
77042;SDS011;65975;53.936;27.540;2023-02-03T15:37:47;3.58;;;2.95;;
77042;SDS011;65975;53.936;27.540;2023-02-03T15:40:18;9.02;;;6.70;;
77042;SDS011;65975;53.936;27.540;2023-02-03T15:42:58;6.00;;;4.15;;
77042;SDS011;65975;53.936;27.540;2023-02-03T15:48:01;31.35;;;13.80;;
77042;SDS011;65975;53.936;27.540;2023-02-03T15:50:36;16.23;;;9.02;;
77042;SDS011;65975;53.936;27.540;2023-02-03T15:53:26;4.90;;;3.20;;
77042;SDS011;65975;53.936;27.540;2023-02-03T15:55:53;5.57;;;3.10;;
77042;SDS011;65975;53.936;27.540;2023-02-03T15:58:28;3.80;;;2.95;;
77042;SDS011;65975;53.936;27.540;2023-02-03T16:00:58;12.63;;;7.15;;
77042;SDS011;65975;53.936;27.540;2023-02-03T16:03:31;18.35;;;11.82;;
77042;SDS011;65975;53.936;27.540;2023-02-03T16:06:05;24.58;;;14.55;;
77042;SDS011;65975;53.936;27.540;2023-02-03T16:08:44;31.70;;;19.20;;
77042;SDS011;65975;53.936;27.540;2023-02-03T16:13:47;24.20;;;13.35;;
77042;SDS011;65975;53.936;27.540;2023-02-03T16:16:15;22.33;;;12.20;;
77042;SDS011;65975;53.936;27.540;2023-02-03T16:18:52;19.52;;;13.35;;
77042;SDS011;65975;53.936;27.540;2023-02-03T16:22:24;12.30;;;6.90;;
77042;SDS011;65975;53.936;27.540;2023-02-03T16:29:52;5.88;;;4.28;;
77042;SDS011;65975;53.936;27.540;2023-02-03T16:32:38;4.82;;;3.22;;
77042;SDS011;65975;53.936;27.540;2023-02-03T16:35:23;3.95;;;2.88;;
77042;SDS011;65975;53.936;27.540;2023-02-03T16:40:57;3.05;;;2.78;;
77042;SDS011;65975;53.936;27.540;2023-02-03T16:43:41;5.45;;;3.67;;
77042;SDS011;65975;53.936;27.540;2023-02-03T16:46:25;8.35;;;4.68;;
77042;SDS011;65975;53.936;27.540;2023-02-03T16:49:09;12.55;;;7.88;;
77042;SDS011;65975;53.936;27.540;2023-02-03T16:51:53;13.88;;;7.78;;
77042;SDS011;65975;53.936;27.540;2023-02-03T16:54:18;7.82;;;5.15;;
77042;SDS011;65975;53.936;27.540;2023-02-03T16:56:44;6.65;;;3.50;;
77042;SDS011;65975;53.936;27.540;2023-02-03T16:59:09;6.35;;;3.53;;
77042;SDS011;65975;53.936;27.540;2023-02-03T17:01:36;11.00;;;4.05;;
77042;SDS011;65975;53.936;27.540;2023-02-03T17:04:01;8.93;;;3.67;;
77042;SDS011;65975;53.936;27.540;2023-02-03T17:06:27;8.32;;;4.68;;
77042;SDS011;65975;53.936;27.540;2023-02-03T17:08:53;7.18;;;3.60;;
77042;SDS011;65975;53.936;27.540;2023-02-03T17:11:20;6.53;;;4.20;;
77042;SDS011;65975;53.936;27.540;2023-02-03T17:13:47;7.63;;;4.72;;
77042;SDS011;65975;53.936;27.540;2023-02-03T17:16:18;11.10;;;5.47;;
77042;SDS011;65975;53.936;27.540;2023-02-03T17:18:47;10.38;;;5.68;;
77042;SDS011;65975;53.936;27.540;2023-02-03T17:21:14;8.27;;;4.88;;
77042;SDS011;65975;53.936;27.540;2023-02-03T17:23:41;11.15;;;7.32;;
77042;SDS011;65975;53.936;27.540;2023-02-03T17:26:07;12.60;;;8.23;;
77042;SDS011;65975;53.936;27.540;2023-02-03T17:28:33;18.77;;;9.82;;
77042;SDS011;65975;53.936;27.540;2023-02-03T17:31:03;19.90;;;11.18;;
77042;SDS011;65975;53.936;27.540;2023-02-03T17:33:31;22.67;;;13.35;;
77042;SDS011;65975;53.936;27.540;2023-02-03T17:35:59;18.70;;;10.77;;
77042;SDS011;65975;53.936;27.540;2023-02-03T17:38:26;16.77;;;8.80;;
77042;SDS011;65975;53.936;27.540;2023-02-03T17:40:51;6.70;;;3.30;;
77042;SDS011;65975;53.936;27.540;2023-02-03T17:43:17;5.32;;;3.20;;
77042;SDS011;65975;53.936;27.540;2023-02-03T17:45:43;4.97;;;3.08;;
77042;SDS011;65975;53.936;27.540;2023-02-03T17:48:09;4.65;;;3.33;;
77042;SDS011;65975;53.936;27.540;2023-02-03T17:50:35;3.67;;;2.78;;
77042;SDS011;65975;53.936;27.540;2023-02-03T17:53:01;5.05;;;3.78;;
77042;SDS011;65975;53.936;27.540;2023-02-03T17:55:27;5.53;;;3.03;;
77042;SDS011;65975;53.936;27.540;2023-02-03T17:57:52;4.88;;;3.40;;
77042;SDS011;65975;53.936;27.540;2023-02-03T18:00:18;4.28;;;2.75;;
77042;SDS011;65975;53.936;27.540;2023-02-03T18:02:47;3.75;;;3.20;;
77042;SDS011;65975;53.936;27.540;2023-02-03T18:05:13;2.90;;;2.53;;